Terminal Aerodrome Forecast
Issued by NWS Jackson, MS

Home | Current Version | Previous Version | Text Only | Print | Product List | Glossary On
Versions: 1 2 3 4 5 6 7 8 9 10 11 12 13 14 15 16 17 18 19 20 21 22 23
191
FTUS44 KMEG 021735
TAFTUP
TAF
KTUP 021735Z 0218/0318 31006KT 6SM -SHRA VCTS SCT005 BKN030CB
      TEMPO 0218/0220 2SM TSRA
     FM022000 35006KT 5SM -RA SCT030 OVC050
     FM030000 02004KT P6SM BKN015
     FM030400 01002KT 6SM BR SCT100
      TEMPO 0310/0314 1SM BR SCT002
     FM031400 02005KT P6SM BKN025=

USA.gov is the U.S. government's official web portal to all federal, state and local government web resources and services.